CYAB

Arctic Bay

Arctic Bay, , Canada
METAR CYAB 162100Z 00000KT 30SM FEW012 FEW210 M31/M34 A2999 RMK SC1CI1 SC TR CI TR -28.8/-32.2/0.0/SNW CVR/MUCH LOOSE/LAST STFD OBS/NEXT 171800Z SLP160
Observed Flight Rules
Nov-16 @ 21:00 UTC (12 hours ago) Visual Flight Rules
Visibility Clouds
30 miles
  • Few at 1,200' AGL
  • Few at 21,000' AGL
Temperatures Readings
Current -31°C / -24°F
Dewpoint -34°C / -29°F
Humidity 75%
Altimeter 29.99" Hg
Pressure 1016 hPa
Elevation 22
METAR CYAB 162100Z 00000KT 30SM FEW012 FEW210 M31/M34 A2999 RMK SC1CI1 SC TR CI TR -28.8/-32.2/0.0/SNW CVR/MUCH LOOSE/LAST STFD OBS/NEXT 171800Z SLP160
Observed Flight Rules
Nov-16 @ 21:00 UTC
(12 hours ago)
VFR
Clouds
  • Few at 1,200' AGL
  • Few at 21,000' AGL
Temperature Dewpoint
-31°C / -24°F -34°C / -29°F
Humidity Altimeter Pressure
75% 29.99" Hg 1016 hPa